sensor_id;sensor_type;location;lat;lon;timestamp;temperature;humidity
40153;DHT22;26371;56.992;23.912;2024-02-28T09:55:43;3.30;99.90
40153;DHT22;26371;56.992;23.912;2024-02-28T09:58:12;3.20;99.90
40153;DHT22;26371;56.992;23.912;2024-02-28T10:00:41;3.20;99.90
40153;DHT22;26371;56.992;23.912;2024-02-28T10:03:11;3.30;99.90
40153;DHT22;26371;56.992;23.912;2024-02-28T10:05:41;3.30;99.90
40153;DHT22;26371;56.992;23.912;2024-02-28T10:08:10;3.40;99.90
40153;DHT22;26371;56.992;23.912;2024-02-28T10:10:44;3.40;99.90
40153;DHT22;26371;56.992;23.912;2024-02-28T10:13:15;3.40;99.90
40153;DHT22;26371;56.992;23.912;2024-02-28T10:15:43;3.40;99.90
40153;DHT22;26371;56.992;23.912;2024-02-28T10:18:12;3.40;99.90
40153;DHT22;26371;56.992;23.912;2024-02-28T10:20:40;3.40;99.90
40153;DHT22;26371;56.992;23.912;2024-02-28T10:23:09;3.40;99.90
40153;DHT22;26371;56.992;23.912;2024-02-28T10:25:43;3.40;99.90
40153;DHT22;26371;56.992;23.912;2024-02-28T10:28:43;3.40;99.90
40153;DHT22;26371;56.992;23.912;2024-02-28T10:31:12;3.40;99.90
40153;DHT22;26371;56.992;23.912;2024-02-28T10:33:42;3.40;99.90
40153;DHT22;26371;56.992;23.912;2024-02-28T10:36:11;3.40;99.90
40153;DHT22;26371;56.992;23.912;2024-02-28T10:38:42;3.40;99.90
40153;DHT22;26371;56.992;23.912;2024-02-28T10:41:11;3.30;99.90
40153;DHT22;26371;56.992;23.912;2024-02-28T10:43:42;3.30;99.90
40153;DHT22;26371;56.992;23.912;2024-02-28T10:46:12;3.30;99.90
40153;DHT22;26371;56.992;23.912;2024-02-28T10:49:02;3.30;99.90
40153;DHT22;26371;56.992;23.912;2024-02-28T10:51:33;3.30;99.90
40153;DHT22;26371;56.992;23.912;2024-02-28T10:54:07;3.20;99.90
40153;DHT22;26371;56.992;23.912;2024-02-28T10:56:36;3.30;99.90
40153;DHT22;26371;56.992;23.912;2024-02-28T10:59:07;3.30;99.90
40153;DHT22;26371;56.992;23.912;2024-02-28T11:01:38;3.20;99.90
40153;DHT22;26371;56.992;23.912;2024-02-28T11:04:09;3.20;99.90
40153;DHT22;26371;56.992;23.912;2024-02-28T11:06:47;3.20;99.90
40153;DHT22;26371;56.992;23.912;2024-02-28T11:09:18;3.30;99.90
40153;DHT22;26371;56.992;23.912;2024-02-28T11:11:47;3.30;99.90
40153;DHT22;26371;56.992;23.912;2024-02-28T11:14:17;3.10;99.90
40153;DHT22;26371;56.992;23.912;2024-02-28T11:16:58;3.10;99.90
40153;DHT22;26371;56.992;23.912;2024-02-28T11:19:28;3.00;99.90
40153;DHT22;26371;56.992;23.912;2024-02-28T11:21:56;3.00;99.90
40153;DHT22;26371;56.992;23.912;2024-02-28T11:24:28;3.00;99.90
40153;DHT22;26371;56.992;23.912;2024-02-28T11:26:58;2.90;99.90
40153;DHT22;26371;56.992;23.912;2024-02-28T11:29:28;3.00;99.90
40153;DHT22;26371;56.992;23.912;2024-02-28T11:31:56;3.00;99.90
40153;DHT22;26371;56.992;23.912;2024-02-28T11:34:25;3.00;99.90
40153;DHT22;26371;56.992;23.912;2024-02-28T11:36:53;3.10;99.90
40153;DHT22;26371;56.992;23.912;2024-02-28T11:39:23;3.10;99.90
40153;DHT22;26371;56.992;23.912;2024-02-28T11:41:53;3.20;99.90
40153;DHT22;26371;56.992;23.912;2024-02-28T11:44:22;3.30;99.90
40153;DHT22;26371;56.992;23.912;2024-02-28T11:46:52;3.30;99.90
40153;DHT22;26371;56.992;23.912;2024-02-28T11:49:21;3.30;99.90
40153;DHT22;26371;56.992;23.912;2024-02-28T11:51:49;3.30;99.90
40153;DHT22;26371;56.992;23.912;2024-02-28T11:54:17;3.20;99.90
40153;DHT22;26371;56.992;23.912;2024-02-28T11:56:46;3.20;99.90
40153;DHT22;26371;56.992;23.912;2024-02-28T11:59:14;3.10;99.90
40153;DHT22;26371;56.992;23.912;2024-02-28T12:01:44;3.10;99.90
40153;DHT22;26371;56.992;23.912;2024-02-28T12:04:16;3.10;99.90
40153;DHT22;26371;56.992;23.912;2024-02-28T12:06:45;3.00;99.90
40153;DHT22;26371;56.992;23.912;2024-02-28T12:09:14;3.00;99.90
40153;DHT22;26371;56.992;23.912;2024-02-28T12:11:53;3.00;99.90
40153;DHT22;26371;56.992;23.912;2024-02-28T12:14:21;3.00;99.90
40153;DHT22;26371;56.992;23.912;2024-02-28T12:16:50;3.10;99.90
40153;DHT22;26371;56.992;23.912;2024-02-28T12:19:20;3.10;99.90
40153;DHT22;26371;56.992;23.912;2024-02-28T12:21:48;3.10;99.90
40153;DHT22;26371;56.992;23.912;2024-02-28T12:24:17;3.10;99.90
40153;DHT22;26371;56.992;23.912;2024-02-28T12:26:45;3.10;99.90
40153;DHT22;26371;56.992;23.912;2024-02-28T12:29:14;3.10;99.90
40153;DHT22;26371;56.992;23.912;2024-02-28T12:31:43;3.10;99.90
40153;DHT22;26371;56.992;23.912;2024-02-28T12:34:11;3.20;99.90
40153;DHT22;26371;56.992;23.912;2024-02-28T12:36:43;3.10;99.90
40153;DHT22;26371;56.992;23.912;2024-02-28T12:39:13;3.10;99.90
40153;DHT22;26371;56.992;23.912;2024-02-28T12:41:43;3.10;99.90
40153;DHT22;26371;56.992;23.912;2024-02-28T12:44:12;3.10;99.90
40153;DHT22;26371;56.992;23.912;2024-02-28T12:46:40;3.10;99.90
40153;DHT22;26371;56.992;23.912;2024-02-28T12:49:09;3.00;99.90
40153;DHT22;26371;56.992;23.912;2024-02-28T12:51:39;3.00;99.90
40153;DHT22;26371;56.992;23.912;2024-02-28T12:54:09;2.90;99.90
40153;DHT22;26371;56.992;23.912;2024-02-28T12:56:41;2.90;99.90
40153;DHT22;26371;56.992;23.912;2024-02-28T12:59:14;2.90;99.90
40153;DHT22;26371;56.992;23.912;2024-02-28T13:01:44;2.90;99.90
40153;DHT22;26371;56.992;23.912;2024-02-28T13:04:20;2.90;99.90
40153;DHT22;26371;56.992;23.912;2024-02-28T13:06:49;2.90;99.90
40153;DHT22;26371;56.992;23.912;2024-02-28T13:09:20;3.00;99.90
40153;DHT22;26371;56.992;23.912;2024-02-28T13:11:49;3.00;99.90
40153;DHT22;26371;56.992;23.912;2024-02-28T13:14:18;3.00;99.90
40153;DHT22;26371;56.992;23.912;2024-02-28T13:16:46;3.10;99.90
40153;DHT22;26371;56.992;23.912;2024-02-28T13:19:15;3.20;99.90
40153;DHT22;26371;56.992;23.912;2024-02-28T13:21:44;3.20;99.90
40153;DHT22;26371;56.992;23.912;2024-02-28T13:24:12;3.10;99.90
40153;DHT22;26371;56.992;23.912;2024-02-28T13:26:43;3.00;99.90
40153;DHT22;26371;56.992;23.912;2024-02-28T13:29:11;3.00;99.90
40153;DHT22;26371;56.992;23.912;2024-02-28T13:31:40;2.90;99.90
40153;DHT22;26371;56.992;23.912;2024-02-28T13:34:08;2.90;99.90
40153;DHT22;26371;56.992;23.912;2024-02-28T13:36:37;2.90;99.90
40153;DHT22;26371;56.992;23.912;2024-02-28T13:39:09;2.80;99.90
40153;DHT22;26371;56.992;23.912;2024-02-28T13:41:38;2.80;99.90
40153;DHT22;26371;56.992;23.912;2024-02-28T13:44:08;2.90;99.90
40153;DHT22;26371;56.992;23.912;2024-02-28T13:46:39;3.00;99.90
40153;DHT22;26371;56.992;23.912;2024-02-28T13:49:08;3.00;99.90
40153;DHT22;26371;56.992;23.912;2024-02-28T13:51:36;3.00;99.90
40153;DHT22;26371;56.992;23.912;2024-02-28T13:54:08;2.90;99.90
40153;DHT22;26371;56.992;23.912;2024-02-28T13:56:37;2.90;99.90
40153;DHT22;26371;56.992;23.912;2024-02-28T13:59:05;2.80;99.90
40153;DHT22;26371;56.992;23.912;2024-02-28T14:01:36;2.90;99.90
40153;DHT22;26371;56.992;23.912;2024-02-28T14:04:05;2.80;99.90
40153;DHT22;26371;56.992;23.912;2024-02-28T14:09:03;2.70;99.90
40153;DHT22;26371;56.992;23.912;2024-02-28T14:11:31;2.80;99.90
40153;DHT22;26371;56.992;23.912;2024-02-28T14:14:00;2.80;99.90
40153;DHT22;26371;56.992;23.912;2024-02-28T14:16:29;2.90;99.90
40153;DHT22;26371;56.992;23.912;2024-02-28T14:19:00;2.80;99.90
40153;DHT22;26371;56.992;23.912;2024-02-28T14:21:29;2.80;99.90
40153;DHT22;26371;56.992;23.912;2024-02-28T14:23:58;2.80;99.90
40153;DHT22;26371;56.992;23.912;2024-02-28T14:26:27;2.80;99.90
40153;DHT22;26371;56.992;23.912;2024-02-28T14:28:55;2.80;99.90
40153;DHT22;26371;56.992;23.912;2024-02-28T14:31:24;2.80;99.90
40153;DHT22;26371;56.992;23.912;2024-02-28T14:33:53;2.70;99.90
40153;DHT22;26371;56.992;23.912;2024-02-28T14:36:23;2.70;99.90
40153;DHT22;26371;56.992;23.912;2024-02-28T14:38:52;2.70;99.90
40153;DHT22;26371;56.992;23.912;2024-02-28T14:41:21;2.70;99.90
40153;DHT22;26371;56.992;23.912;2024-02-28T14:43:49;2.70;99.90
40153;DHT22;26371;56.992;23.912;2024-02-28T14:46:18;2.70;99.90
40153;DHT22;26371;56.992;23.912;2024-02-28T14:48:48;2.70;99.90
40153;DHT22;26371;56.992;23.912;2024-02-28T14:51:19;2.70;99.90
40153;DHT22;26371;56.992;23.912;2024-02-28T14:53:49;2.70;99.90
40153;DHT22;26371;56.992;23.912;2024-02-28T14:56:17;2.70;99.90
40153;DHT22;26371;56.992;23.912;2024-02-28T15:01:15;2.60;99.90
40153;DHT22;26371;56.992;23.912;2024-02-28T15:03:44;2.60;99.90
40153;DHT22;26371;56.992;23.912;2024-02-28T15:06:13;2.60;99.90
40153;DHT22;26371;56.992;23.912;2024-02-28T15:08:41;2.50;99.90
40153;DHT22;26371;56.992;23.912;2024-02-28T15:11:11;2.50;99.90
40153;DHT22;26371;56.992;23.912;2024-02-28T15:13:39;2.50;99.90
40153;DHT22;26371;56.992;23.912;2024-02-28T15:16:08;2.50;99.90
40153;DHT22;26371;56.992;23.912;2024-02-28T15:18:36;2.50;99.90
40153;DHT22;26371;56.992;23.912;2024-02-28T15:21:06;2.50;99.90
40153;DHT22;26371;56.992;23.912;2024-02-28T15:23:35;2.50;99.90
40153;DHT22;26371;56.992;23.912;2024-02-28T15:26:03;2.50;99.90
40153;DHT22;26371;56.992;23.912;2024-02-28T15:28:33;2.40;99.90
40153;DHT22;26371;56.992;23.912;2024-02-28T15:31:01;2.40;99.90
40153;DHT22;26371;56.992;23.912;2024-02-28T15:33:30;2.40;99.90
40153;DHT22;26371;56.992;23.912;2024-02-28T15:35:58;2.40;99.90
40153;DHT22;26371;56.992;23.912;2024-02-28T15:38:30;2.40;99.90
40153;DHT22;26371;56.992;23.912;2024-02-28T15:40:58;2.30;99.90
40153;DHT22;26371;56.992;23.912;2024-02-28T15:43:26;2.30;99.90
40153;DHT22;26371;56.992;23.912;2024-02-28T15:45:56;2.40;99.90
40153;DHT22;26371;56.992;23.912;2024-02-28T15:48:25;2.30;99.90
40153;DHT22;26371;56.992;23.912;2024-02-28T15:50:54;2.30;99.90
40153;DHT22;26371;56.992;23.912;2024-02-28T15:53:23;2.30;99.90
40153;DHT22;26371;56.992;23.912;2024-02-28T15:55:52;2.30;99.90
40153;DHT22;26371;56.992;23.912;2024-02-28T15:58:20;2.30;99.90
40153;DHT22;26371;56.992;23.912;2024-02-28T16:00:48;2.30;99.90
40153;DHT22;26371;56.992;23.912;2024-02-28T16:03:19;2.20;99.90
40153;DHT22;26371;56.992;23.912;2024-02-28T16:05:48;2.20;99.90
40153;DHT22;26371;56.992;23.912;2024-02-28T16:08:16;2.30;99.90
40153;DHT22;26371;56.992;23.912;2024-02-28T16:10:46;2.30;99.90
40153;DHT22;26371;56.992;23.912;2024-02-28T16:13:15;2.20;99.90
40153;DHT22;26371;56.992;23.912;2024-02-28T16:15:44;2.30;99.90
40153;DHT22;26371;56.992;23.912;2024-02-28T16:18:12;2.30;99.90
40153;DHT22;26371;56.992;23.912;2024-02-28T16:20:43;2.20;99.90
40153;DHT22;26371;56.992;23.912;2024-02-28T16:23:11;2.30;99.90
40153;DHT22;26371;56.992;23.912;2024-02-28T16:25:40;2.30;99.90
40153;DHT22;26371;56.992;23.912;2024-02-28T16:28:08;2.30;99.90
40153;DHT22;26371;56.992;23.912;2024-02-28T16:30:37;2.30;99.90
40153;DHT22;26371;56.992;23.912;2024-02-28T16:33:14;2.30;99.90
40153;DHT22;26371;56.992;23.912;2024-02-28T16:35:45;2.30;99.90
40153;DHT22;26371;56.992;23.912;2024-02-28T16:38:14;2.40;99.90
40153;DHT22;26371;56.992;23.912;2024-02-28T16:40:42;2.40;99.90
40153;DHT22;26371;56.992;23.912;2024-02-28T16:43:11;2.40;99.90
40153;DHT22;26371;56.992;23.912;2024-02-28T16:45:40;2.50;99.90
40153;DHT22;26371;56.992;23.912;2024-02-28T16:48:08;2.40;99.90
40153;DHT22;26371;56.992;23.912;2024-02-28T16:50:37;2.40;99.90
40153;DHT22;26371;56.992;23.912;2024-02-28T16:53:07;2.40;99.90
40153;DHT22;26371;56.992;23.912;2024-02-28T16:55:35;2.40;99.90
40153;DHT22;26371;56.992;23.912;2024-02-28T16:58:03;2.40;99.90
40153;DHT22;26371;56.992;23.912;2024-02-28T17:00:32;2.40;99.90
40153;DHT22;26371;56.992;23.912;2024-02-28T17:03:05;2.50;99.90
40153;DHT22;26371;56.992;23.912;2024-02-28T17:05:33;2.50;99.90
40153;DHT22;26371;56.992;23.912;2024-02-28T17:08:07;2.50;99.90
40153;DHT22;26371;56.992;23.912;2024-02-28T17:10:36;2.50;99.90
40153;DHT22;26371;56.992;23.912;2024-02-28T17:13:05;2.50;99.90
40153;DHT22;26371;56.992;23.912;2024-02-28T17:15:37;2.60;99.90
40153;DHT22;26371;56.992;23.912;2024-02-28T17:18:06;2.50;99.90
40153;DHT22;26371;56.992;23.912;2024-02-28T17:20:34;2.60;99.90
40153;DHT22;26371;56.992;23.912;2024-02-28T17:23:03;2.60;99.90
40153;DHT22;26371;56.992;23.912;2024-02-28T17:25:33;2.60;99.90
40153;DHT22;26371;56.992;23.912;2024-02-28T17:28:01;2.50;99.90
40153;DHT22;26371;56.992;23.912;2024-02-28T17:30:30;2.60;99.90
40153;DHT22;26371;56.992;23.912;2024-02-28T17:32:58;2.60;99.90
40153;DHT22;26371;56.992;23.912;2024-02-28T17:35:27;2.60;99.90
40153;DHT22;26371;56.992;23.912;2024-02-28T17:37:55;2.60;99.90
40153;DHT22;26371;56.992;23.912;2024-02-28T17:40:24;2.60;99.90
40153;DHT22;26371;56.992;23.912;2024-02-28T17:42:54;2.60;99.90
40153;DHT22;26371;56.992;23.912;2024-02-28T17:45:22;2.60;99.90
40153;DHT22;26371;56.992;23.912;2024-02-28T17:47:51;2.60;99.90
40153;DHT22;26371;56.992;23.912;2024-02-28T17:50:20;2.60;99.90
40153;DHT22;26371;56.992;23.912;2024-02-28T17:52:51;2.70;99.90
40153;DHT22;26371;56.992;23.912;2024-02-28T17:55:21;2.70;99.90
40153;DHT22;26371;56.992;23.912;2024-02-28T17:57:49;2.70;99.90
40153;DHT22;26371;56.992;23.912;2024-02-28T18:00:19;2.70;99.90
40153;DHT22;26371;56.992;23.912;2024-02-28T18:02:53;2.70;99.90
40153;DHT22;26371;56.992;23.912;2024-02-28T18:05:22;2.70;99.90
40153;DHT22;26371;56.992;23.912;2024-02-28T18:07:51;2.70;99.90
40153;DHT22;26371;56.992;23.912;2024-02-28T18:10:22;2.70;99.90
40153;DHT22;26371;56.992;23.912;2024-02-28T18:12:51;2.70;99.90
40153;DHT22;26371;56.992;23.912;2024-02-28T18:15:21;2.60;99.90
40153;DHT22;26371;56.992;23.912;2024-02-28T18:17:50;2.70;99.90
40153;DHT22;26371;56.992;23.912;2024-02-28T18:20:19;2.60;99.90
40153;DHT22;26371;56.992;23.912;2024-02-28T18:22:47;2.60;99.90
40153;DHT22;26371;56.992;23.912;2024-02-28T18:25:15;2.60;99.90
40153;DHT22;26371;56.992;23.912;2024-02-28T18:27:44;2.60;99.90
40153;DHT22;26371;56.992;23.912;2024-02-28T18:30:13;2.60;99.90
40153;DHT22;26371;56.992;23.912;2024-02-28T18:32:43;2.50;99.90
40153;DHT22;26371;56.992;23.912;2024-02-28T18:35:14;2.50;99.90
40153;DHT22;26371;56.992;23.912;2024-02-28T18:37:42;2.50;99.90
40153;DHT22;26371;56.992;23.912;2024-02-28T18:40:11;2.40;99.90
40153;DHT22;26371;56.992;23.912;2024-02-28T18:42:43;2.40;99.90
40153;DHT22;26371;56.992;23.912;2024-02-28T18:45:11;2.30;99.90
40153;DHT22;26371;56.992;23.912;2024-02-28T18:47:40;2.20;99.90
40153;DHT22;26371;56.992;23.912;2024-02-28T18:50:10;2.20;99.90
40153;DHT22;26371;56.992;23.912;2024-02-28T18:52:39;2.20;99.90
40153;DHT22;26371;56.992;23.912;2024-02-28T18:55:08;2.20;99.90
40153;DHT22;26371;56.992;23.912;2024-02-28T18:57:37;2.20;99.90
40153;DHT22;26371;56.992;23.912;2024-02-28T19:00:06;2.20;99.90
40153;DHT22;26371;56.992;23.912;2024-02-28T19:02:34;2.20;99.90
40153;DHT22;26371;56.992;23.912;2024-02-28T19:05:04;2.20;99.90
40153;DHT22;26371;56.992;23.912;2024-02-28T19:07:34;2.10;99.90
40153;DHT22;26371;56.992;23.912;2024-02-28T19:10:02;2.10;99.90
40153;DHT22;26371;56.992;23.912;2024-02-28T19:12:31;2.10;99.90
40153;DHT22;26371;56.992;23.912;2024-02-28T19:15:00;2.10;99.90
40153;DHT22;26371;56.992;23.912;2024-02-28T19:17:30;2.10;99.90
40153;DHT22;26371;56.992;23.912;2024-02-28T19:19:58;2.10;99.90
40153;DHT22;26371;56.992;23.912;2024-02-28T19:22:27;2.10;99.90
40153;DHT22;26371;56.992;23.912;2024-02-28T19:24:56;2.20;99.90
40153;DHT22;26371;56.992;23.912;2024-02-28T19:27:25;2.10;99.90
40153;DHT22;26371;56.992;23.912;2024-02-28T19:29:56;2.10;99.90
40153;DHT22;26371;56.992;23.912;2024-02-28T19:32:25;2.10;99.90
40153;DHT22;26371;56.992;23.912;2024-02-28T19:34:53;2.10;99.90
40153;DHT22;26371;56.992;23.912;2024-02-28T19:37:21;2.10;99.90
40153;DHT22;26371;56.992;23.912;2024-02-28T19:39:50;2.10;99.90
40153;DHT22;26371;56.992;23.912;2024-02-28T19:42:25;2.00;99.90
40153;DHT22;26371;56.992;23.912;2024-02-28T19:44:53;2.00;99.90
40153;DHT22;26371;56.992;23.912;2024-02-28T19:47:22;2.00;99.90
40153;DHT22;26371;56.992;23.912;2024-02-28T19:49:50;2.00;99.90
40153;DHT22;26371;56.992;23.912;2024-02-28T19:52:19;2.00;99.90
40153;DHT22;26371;56.992;23.912;2024-02-28T19:54:48;2.10;99.90
40153;DHT22;26371;56.992;23.912;2024-02-28T19:57:16;2.10;99.90
40153;DHT22;26371;56.992;23.912;2024-02-28T19:59:47;2.10;99.90
40153;DHT22;26371;56.992;23.912;2024-02-28T20:02:15;2.10;99.90
40153;DHT22;26371;56.992;23.912;2024-02-28T20:04:45;2.00;99.90
40153;DHT22;26371;56.992;23.912;2024-02-28T20:07:13;2.00;99.90
40153;DHT22;26371;56.992;23.912;2024-02-28T20:09:42;2.00;99.90
40153;DHT22;26371;56.992;23.912;2024-02-28T20:12:10;1.90;99.90
40153;DHT22;26371;56.992;23.912;2024-02-28T20:14:38;1.90;99.90
40153;DHT22;26371;56.992;23.912;2024-02-28T20:17:11;1.90;99.90
40153;DHT22;26371;56.992;23.912;2024-02-28T20:19:40;1.90;99.90
40153;DHT22;26371;56.992;23.912;2024-02-28T20:22:10;1.80;99.90
40153;DHT22;26371;56.992;23.912;2024-02-28T20:24:39;1.80;99.90
40153;DHT22;26371;56.992;23.912;2024-02-28T20:27:09;1.80;99.90
40153;DHT22;26371;56.992;23.912;2024-02-28T20:29:38;1.80;99.90
40153;DHT22;26371;56.992;23.912;2024-02-28T20:32:06;1.80;99.90
40153;DHT22;26371;56.992;23.912;2024-02-28T20:34:36;1.70;99.90
40153;DHT22;26371;56.992;23.912;2024-02-28T20:37:05;1.70;99.90
40153;DHT22;26371;56.992;23.912;2024-02-28T20:39:34;1.70;99.90
40153;DHT22;26371;56.992;23.912;2024-02-28T20:42:02;1.70;99.90
40153;DHT22;26371;56.992;23.912;2024-02-28T20:44:31;1.70;99.90
40153;DHT22;26371;56.992;23.912;2024-02-28T20:47:00;1.60;99.90
40153;DHT22;26371;56.992;23.912;2024-02-28T20:49:30;1.60;99.90
40153;DHT22;26371;56.992;23.912;2024-02-28T20:52:01;1.60;99.90
40153;DHT22;26371;56.992;23.912;2024-02-28T20:54:29;1.60;99.90
40153;DHT22;26371;56.992;23.912;2024-02-28T20:56:57;1.60;99.90
40153;DHT22;26371;56.992;23.912;2024-02-28T20:59:38;1.60;99.90
40153;DHT22;26371;56.992;23.912;2024-02-28T21:02:06;1.60;99.90
40153;DHT22;26371;56.992;23.912;2024-02-28T21:04:35;1.60;99.90
40153;DHT22;26371;56.992;23.912;2024-02-28T21:07:06;1.60;99.90
40153;DHT22;26371;56.992;23.912;2024-02-28T21:09:34;1.60;99.90
40153;DHT22;26371;56.992;23.912;2024-02-28T21:12:05;1.60;99.90
40153;DHT22;26371;56.992;23.912;2024-02-28T21:14:34;1.60;99.90
40153;DHT22;26371;56.992;23.912;2024-02-28T21:17:02;1.60;99.90
40153;DHT22;26371;56.992;23.912;2024-02-28T21:19:32;1.60;99.90
40153;DHT22;26371;56.992;23.912;2024-02-28T21:22:02;1.60;99.90
40153;DHT22;26371;56.992;23.912;2024-02-28T21:24:36;1.70;99.90
40153;DHT22;26371;56.992;23.912;2024-02-28T21:27:04;1.60;99.90
40153;DHT22;26371;56.992;23.912;2024-02-28T21:29:33;1.70;99.90
40153;DHT22;26371;56.992;23.912;2024-02-28T21:32:02;1.70;99.90
40153;DHT22;26371;56.992;23.912;2024-02-28T21:34:30;1.80;99.90
40153;DHT22;26371;56.992;23.912;2024-02-28T21:36:59;1.80;99.90
40153;DHT22;26371;56.992;23.912;2024-02-28T21:39:27;1.70;99.90
40153;DHT22;26371;56.992;23.912;2024-02-28T21:41:57;1.70;99.90
40153;DHT22;26371;56.992;23.912;2024-02-28T21:44:26;1.70;99.90
40153;DHT22;26371;56.992;23.912;2024-02-28T21:46:55;1.70;99.90
40153;DHT22;26371;56.992;23.912;2024-02-28T21:49:24;1.70;99.90
40153;DHT22;26371;56.992;23.912;2024-02-28T21:51:52;1.70;99.90
40153;DHT22;26371;56.992;23.912;2024-02-28T21:54:20;1.70;99.90
40153;DHT22;26371;56.992;23.912;2024-02-28T21:56:49;1.70;99.90
40153;DHT22;26371;56.992;23.912;2024-02-28T21:59:19;1.70;99.90
40153;DHT22;26371;56.992;23.912;2024-02-28T22:01:47;1.70;99.90
40153;DHT22;26371;56.992;23.912;2024-02-28T22:04:16;1.70;99.90
40153;DHT22;26371;56.992;23.912;2024-02-28T22:06:44;1.70;99.90
40153;DHT22;26371;56.992;23.912;2024-02-28T22:09:13;1.70;99.90
40153;DHT22;26371;56.992;23.912;2024-02-28T22:11:41;1.60;99.90
40153;DHT22;26371;56.992;23.912;2024-02-28T22:14:10;1.70;99.90
40153;DHT22;26371;56.992;23.912;2024-02-28T22:16:40;1.70;99.90
40153;DHT22;26371;56.992;23.912;2024-02-28T22:19:09;1.70;99.90
40153;DHT22;26371;56.992;23.912;2024-02-28T22:21:39;1.70;99.90
40153;DHT22;26371;56.992;23.912;2024-02-28T22:24:07;1.60;99.90
40153;DHT22;26371;56.992;23.912;2024-02-28T22:26:36;1.60;99.90
40153;DHT22;26371;56.992;23.912;2024-02-28T22:29:04;1.60;99.90
40153;DHT22;26371;56.992;23.912;2024-02-28T22:31:33;1.60;99.90
40153;DHT22;26371;56.992;23.912;2024-02-28T22:34:03;1.60;99.90
40153;DHT22;26371;56.992;23.912;2024-02-28T22:36:32;1.60;99.90
40153;DHT22;26371;56.992;23.912;2024-02-28T22:39:01;1.70;99.90
40153;DHT22;26371;56.992;23.912;2024-02-28T22:41:29;1.70;99.90
40153;DHT22;26371;56.992;23.912;2024-02-28T22:44:01;1.70;99.90
40153;DHT22;26371;56.992;23.912;2024-02-28T22:46:29;1.60;99.90
40153;DHT22;26371;56.992;23.912;2024-02-28T22:48:58;1.60;99.90
40153;DHT22;26371;56.992;23.912;2024-02-28T22:51:32;1.70;99.90
40153;DHT22;26371;56.992;23.912;2024-02-28T22:54:00;1.70;99.90
40153;DHT22;26371;56.992;23.912;2024-02-28T22:56:29;1.70;99.90
40153;DHT22;26371;56.992;23.912;2024-02-28T22:58:58;1.60;99.90
40153;DHT22;26371;56.992;23.912;2024-02-28T23:01:29;1.60;99.90
40153;DHT22;26371;56.992;23.912;2024-02-28T23:03:58;1.60;99.90
40153;DHT22;26371;56.992;23.912;2024-02-28T23:06:27;1.60;99.90
40153;DHT22;26371;56.992;23.912;2024-02-28T23:08:57;1.60;99.90
40153;DHT22;26371;56.992;23.912;2024-02-28T23:11:25;1.60;99.90
40153;DHT22;26371;56.992;23.912;2024-02-28T23:13:54;1.60;99.90
40153;DHT22;26371;56.992;23.912;2024-02-28T23:16:23;1.60;99.90
40153;DHT22;26371;56.992;23.912;2024-02-28T23:18:55;1.50;99.90
40153;DHT22;26371;56.992;23.912;2024-02-28T23:21:23;1.50;99.90
40153;DHT22;26371;56.992;23.912;2024-02-28T23:23:52;1.50;99.90
40153;DHT22;26371;56.992;23.912;2024-02-28T23:26:22;1.60;99.90
40153;DHT22;26371;56.992;23.912;2024-02-28T23:28:50;1.60;99.90
40153;DHT22;26371;56.992;23.912;2024-02-28T23:31:18;1.50;99.90
40153;DHT22;26371;56.992;23.912;2024-02-28T23:33:48;1.50;99.90
40153;DHT22;26371;56.992;23.912;2024-02-28T23:36:17;1.50;99.90
40153;DHT22;26371;56.992;23.912;2024-02-28T23:38:46;1.60;99.90
40153;DHT22;26371;56.992;23.912;2024-02-28T23:41:14;1.50;99.90
40153;DHT22;26371;56.992;23.912;2024-02-28T23:43:45;1.60;99.90
40153;DHT22;26371;56.992;23.912;2024-02-28T23:46:14;1.60;99.90
40153;DHT22;26371;56.992;23.912;2024-02-28T23:48:42;1.60;99.90
40153;DHT22;26371;56.992;23.912;2024-02-28T23:51:11;1.60;99.90
40153;DHT22;26371;56.992;23.912;2024-02-28T23:53:41;1.70;99.90
40153;DHT22;26371;56.992;23.912;2024-02-28T23:56:09;1.70;99.90
40153;DHT22;26371;56.992;23.912;2024-02-28T23:58:38;1.70;99.90
